Time,TemperatureF,DewpointF,PressureIn,WindDirection,WindDirectionDegrees,WindSpeedMPH,WindSpeedGustMPH,Humidity,HourlyPrecipIn,Conditions,Clouds,dailyrainin,SoftwareType,DateUTC
2013-07-11 08:55:00,74.0,66.0,30.07,East,98,0.0,-999.0,77,-99.99,,,-99.99,,2013-07-11 13:55:00,
2013-07-11 09:05:00,74.0,66.0,30.07,East,98,0.0,-999.0,77,-99.99,,,-99.99,,2013-07-11 14:05:00,
2013-07-11 09:15:00,74.0,66.0,30.07,East,98,0.0,-999.0,77,-99.99,,,-99.99,,2013-07-11 14:15:00,
2013-07-11 09:35:00,75.0,66.0,30.09,ESE,103,1.0,-999.0,74,-99.99,,,-99.99,,2013-07-11 14:35:00,
2013-07-11 09:47:00,75.0,66.0,30.09,ESE,103,1.0,-999.0,74,-99.99,,,-99.99,,2013-07-11 14:47:00,
2013-07-11 09:55:00,76.0,66.0,30.07,ENE,60,1.0,-999.0,72,-99.99,,,-99.99,,2013-07-11 14:55:00,
2013-07-11 10:04:00,76.0,66.0,30.07,ENE,60,1.0,-999.0,72,-99.99,,,-99.99,,2013-07-11 15:04:00,
2013-07-11 10:13:00,76.0,66.0,30.07,ENE,60,1.0,-999.0,72,-99.99,,,-99.99,,2013-07-11 15:13:00,
2013-07-11 10:24:00,79.0,67.0,30.09,NNE,13,1.0,-999.0,67,-99.99,,,-99.99,,2013-07-11 15:24:00,
2013-07-11 10:37:00,79.0,67.0,30.09,NNE,13,1.0,-999.0,67,-99.99,,,-99.99,,2013-07-11 15:37:00,
2013-07-11 10:48:00,79.0,67.0,30.09,NNE,13,1.0,-999.0,67,-99.99,,,-99.99,,2013-07-11 15:48:00,
2013-07-11 10:58:00,81.0,67.0,30.09,East,95,1.0,-999.0,63,-99.99,,,-99.99,,2013-07-11 15:58:00,
2013-07-11 11:05:00,81.0,67.0,30.09,East,95,1.0,-999.0,63,-99.99,,,-99.99,,2013-07-11 16:05:00,
2013-07-11 11:14:00,81.0,67.0,30.09,East,95,1.0,-999.0,63,-99.99,,,-99.99,,2013-07-11 16:14:00,
2013-07-11 11:25:00,82.0,67.0,30.09,NNW,345,1.0,-999.0,60,-99.99,,,-99.99,,2013-07-11 16:25:00,
2013-07-11 11:34:00,82.0,67.0,30.09,NNW,345,1.0,-999.0,60,-99.99,,,-99.99,,2013-07-11 16:34:00,
2013-07-11 11:49:00,82.0,67.0,30.09,NNW,345,1.0,-999.0,60,-99.99,,,-99.99,,2013-07-11 16:49:00,
2013-07-11 11:56:00,82.0,65.0,30.10,SE,130,2.0,-999.0,56,-99.99,,,-99.99,,2013-07-11 16:56:00,
2013-07-11 12:02:00,82.0,65.0,30.10,SE,130,2.0,-999.0,56,-99.99,,,-99.99,,2013-07-11 17:02:00,
2013-07-11 12:15:00,82.0,65.0,30.10,SE,130,2.0,-999.0,56,-99.99,,,-99.99,,2013-07-11 17:15:00,
2013-07-11 12:26:00,83.0,65.0,30.09,SE,128,3.0,-999.0,54,-99.99,,,-99.99,,2013-07-11 17:26:00,
2013-07-11 12:38:00,83.0,65.0,30.09,SE,128,3.0,-999.0,54,-99.99,,,-99.99,,2013-07-11 17:38:00,
2013-07-11 12:56:00,85.0,65.0,30.09,SE,136,2.0,-999.0,51,-99.99,,,-99.99,,2013-07-11 17:56:00,
2013-07-11 13:05:00,85.0,65.0,30.09,SE,136,2.0,-999.0,51,-99.99,,,-99.99,,2013-07-11 18:05:00,
2013-07-11 13:14:00,85.0,65.0,30.09,SE,136,2.0,-999.0,51,-99.99,,,-99.99,,2013-07-11 18:14:00,
2013-07-11 13:24:00,84.0,63.0,30.06,NW,324,3.0,-999.0,50,-99.99,,,-99.99,,2013-07-11 18:24:00,
2013-07-11 13:35:00,84.0,63.0,30.06,NW,324,3.0,-999.0,50,-99.99,,,-99.99,,2013-07-11 18:35:00,
2013-07-11 13:48:00,84.0,63.0,30.06,NW,324,3.0,-999.0,50,-99.99,,,-99.99,,2013-07-11 18:48:00,
2013-07-11 13:56:00,85.0,62.0,30.09,ENE,63,1.0,-999.0,46,-99.99,,,-99.99,,2013-07-11 18:56:00,
2013-07-11 14:04:00,85.0,62.0,30.09,ENE,63,1.0,-999.0,46,-99.99,,,-99.99,,2013-07-11 19:04:00,
2013-07-11 14:13:00,85.0,62.0,30.09,ENE,63,1.0,-999.0,46,-99.99,,,-99.99,,2013-07-11 19:13:00,
2013-07-11 14:38:00,86.0,60.0,30.09,East,96,2.0,-999.0,42,-99.99,,,-99.99,,2013-07-11 19:38:00,
2013-07-11 14:47:00,86.0,60.0,30.09,East,96,2.0,-999.0,42,-99.99,,,-99.99,,2013-07-11 19:47:00,
2013-07-11 14:57:00,85.0,61.0,30.09,NNW,342,3.0,-999.0,44,-99.99,,,-99.99,,2013-07-11 19:57:00,
2013-07-11 15:05:00,85.0,61.0,30.09,NNW,342,3.0,-999.0,44,-99.99,,,-99.99,,2013-07-11 20:05:00,
2013-07-11 15:13:00,85.0,61.0,30.09,NNW,342,3.0,-999.0,44,-99.99,,,-99.99,,2013-07-11 20:13:00,
2013-07-11 15:26:00,86.0,60.0,30.08,ESE,105,2.0,-999.0,42,-99.99,,,-99.99,,2013-07-11 20:26:00,
2013-07-11 15:49:00,86.0,60.0,30.08,ESE,105,2.0,-999.0,42,-99.99,,,-99.99,,2013-07-11 20:49:00,
2013-07-11 15:56:00,87.0,61.0,30.08,SE,144,2.0,-999.0,42,-99.99,,,-99.99,,2013-07-11 20:56:00,
2013-07-11 16:05:00,87.0,61.0,30.08,SE,144,2.0,-999.0,42,-99.99,,,-99.99,,2013-07-11 21:05:00,
2013-07-11 16:24:00,87.0,61.0,30.08,East,92,2.0,-999.0,42,-99.99,,,-99.99,,2013-07-11 21:24:00,
2013-07-11 16:35:00,87.0,61.0,30.08,East,92,2.0,-999.0,42,-99.99,,,-99.99,,2013-07-11 21:35:00,
2013-07-11 16:46:00,87.0,61.0,30.08,East,92,2.0,-999.0,42,-99.99,,,-99.99,,2013-07-11 21:46:00,
2013-07-11 16:58:00,87.0,59.0,30.04,NNW,340,2.0,-999.0,39,-99.99,,,-99.99,,2013-07-11 21:58:00,
2013-07-11 17:05:00,87.0,59.0,30.04,NNW,340,2.0,-999.0,39,-99.99,,,-99.99,,2013-07-11 22:05:00,
2013-07-11 17:16:00,87.0,59.0,30.04,NNW,340,2.0,-999.0,39,-99.99,,,-99.99,,2013-07-11 22:16:00,
2013-07-11 17:25:00,86.0,61.0,30.03,ESE,103,3.0,-999.0,43,-99.99,,,-99.99,,2013-07-11 22:25:00,
2013-07-11 17:34:00,86.0,61.0,30.03,ESE,103,3.0,-999.0,43,-99.99,,,-99.99,,2013-07-11 22:34:00,
2013-07-11 17:49:00,86.0,61.0,30.03,ESE,103,3.0,-999.0,43,-99.99,,,-99.99,,2013-07-11 22:49:00,
2013-07-11 17:55:00,86.0,62.0,30.03,ESE,108,1.0,-999.0,44,-99.99,,,-99.99,,2013-07-11 22:55:00,
2013-07-11 18:13:00,86.0,62.0,30.03,ESE,108,1.0,-999.0,44,-99.99,,,-99.99,,2013-07-11 23:13:00,
2013-07-11 18:25:00,86.0,61.0,30.02,NNE,25,1.0,-999.0,43,-99.99,,,-99.99,,2013-07-11 23:25:00,
2013-07-11 18:35:00,86.0,61.0,30.02,NNE,25,1.0,-999.0,43,-99.99,,,-99.99,,2013-07-11 23:35:00,
2013-07-11 18:47:00,86.0,61.0,30.02,NNE,25,1.0,-999.0,43,-99.99,,,-99.99,,2013-07-11 23:47:00,
2013-07-11 18:59:00,85.0,62.0,30.01,ENE,74,1.0,-999.0,47,-99.99,,,-99.99,,2013-07-11 23:59:00,
2013-07-11 19:05:00,85.0,62.0,30.01,ENE,74,1.0,-999.0,47,-99.99,,,-99.99,,2013-07-12 00:05:00,
2013-07-11 19:13:00,85.0,62.0,30.01,ENE,74,1.0,-999.0,47,-99.99,,,-99.99,,2013-07-12 00:13:00,
2013-07-11 19:24:00,82.0,60.0,30.01,East,94,1.0,-999.0,47,-99.99,,,-99.99,,2013-07-12 00:24:00,
2013-07-11 19:35:00,82.0,60.0,30.01,East,94,1.0,-999.0,47,-99.99,,,-99.99,,2013-07-12 00:35:00,
2013-07-11 19:46:00,82.0,60.0,30.01,East,94,1.0,-999.0,47,-99.99,,,-99.99,,2013-07-12 00:46:00,
2013-07-11 19:58:00,81.0,61.0,30.00,East,98,0.0,-999.0,51,-99.99,,,-99.99,,2013-07-12 00:58:00,
2013-07-11 20:04:00,81.0,61.0,30.00,East,98,0.0,-999.0,51,-99.99,,,-99.99,,2013-07-12 01:04:00,
2013-07-11 20:13:00,81.0,61.0,30.00,East,98,0.0,-999.0,51,-99.99,,,-99.99,,2013-07-12 01:13:00,
2013-07-11 20:26:00,80.0,63.0,30.01,North,360,0.0,-999.0,57,-99.99,,,-99.99,,2013-07-12 01:26:00,
2013-07-11 20:36:00,80.0,63.0,30.01,North,360,0.0,-999.0,57,-99.99,,,-99.99,,2013-07-12 01:36:00,
2013-07-11 20:48:00,80.0,63.0,30.01,North,360,0.0,-999.0,57,-99.99,,,-99.99,,2013-07-12 01:48:00,
2013-07-11 20:56:00,77.0,63.0,30.02,NNE,29,0.0,-999.0,62,-99.99,,,-99.99,,2013-07-12 01:56:00,
2013-07-11 21:06:00,77.0,63.0,30.02,NNE,29,0.0,-999.0,62,-99.99,,,-99.99,,2013-07-12 02:06:00,
2013-07-11 21:25:00,75.0,63.0,30.02,NE,37,0.0,-999.0,67,-99.99,,,-99.99,,2013-07-12 02:25:00,
2013-07-11 21:35:00,75.0,63.0,30.02,NE,37,0.0,-999.0,67,-99.99,,,-99.99,,2013-07-12 02:35:00,
2013-07-11 21:45:00,75.0,63.0,30.02,NE,37,0.0,-999.0,67,-99.99,,,-99.99,,2013-07-12 02:45:00,
2013-07-11 21:55:00,74.0,63.0,30.02,NE,42,0.0,-999.0,69,-99.99,,,-99.99,,2013-07-12 02:55:00,
2013-07-11 22:01:00,73.0,62.0,30.03,East,90,1.0,-999.0,69,-99.99,,,-99.99,,2013-07-12 03:01:00,
2013-07-11 22:24:00,73.0,62.0,30.03,East,90,1.0,-999.0,69,-99.99,,,-99.99,,2013-07-12 03:24:00,
2013-07-11 22:36:00,73.0,62.0,30.03,East,90,1.0,-999.0,69,-99.99,,,-99.99,,2013-07-12 03:36:00,
2013-07-11 22:46:00,73.0,62.0,30.03,East,90,1.0,-999.0,69,-99.99,,,-99.99,,2013-07-12 03:46:00,
2013-07-11 22:56:00,73.0,62.0,30.03,East,90,1.0,-999.0,69,-99.99,,,-99.99,,2013-07-12 03:56:00,